Time;durP1;ratioP1;P1;durP2;ratioP2;P2;SDS_P1;SDS_P2;PMS_P1;PMS_P2;Temp;Humidity;BMP_temperature;BMP_pressure;BME280_temperature;BME280_humidity;BME280_pressure;Samples;Min_cycle;Max_cycle;Signal;HPM_P1;HPM_P2
2024/02/03 00:01:58;;;;;;;8.98;6.55;;;12.00;82.10;;;;;;4890339;29;20033;-84
2024/02/03 00:04:23;;;;;;;7.15;5.93;;;12.10;82.20;;;;;;4884846;29;20031;-84
2024/02/03 00:06:49;;;;;;;10.25;6.45;;;12.10;82.20;;;;;;4890217;29;20059;-84
2024/02/03 00:09:15;;;;;;;7.97;6.75;;;12.10;82.20;;;;;;4893375;29;20039;-84
2024/02/03 00:11:45;;;;;;;9.32;7.07;;;12.10;82.20;;;;;;4879447;29;20028;-89
2024/02/03 00:14:11;;;;;;;8.65;6.78;;;12.10;82.20;;;;;;4878142;29;20238;-80
2024/02/03 00:16:37;;;;;;;8.18;6.53;;;12.10;82.20;;;;;;4894857;29;20029;-89
2024/02/03 00:19:02;;;;;;;8.00;6.75;;;12.10;82.20;;;;;;4872627;29;20032;-81
2024/02/03 00:21:28;;;;;;;8.38;6.38;;;12.10;82.20;;;;;;4893540;29;20033;-79
2024/02/03 00:23:54;;;;;;;8.32;6.28;;;12.10;82.20;;;;;;4882720;29;20021;-85
2024/02/03 00:26:20;;;;;;;8.05;6.65;;;12.10;82.20;;;;;;4897337;29;20401;-84
2024/02/03 00:28:46;;;;;;;7.85;5.97;;;12.10;82.20;;;;;;4893065;29;20029;-85
2024/02/03 00:31:12;;;;;;;8.57;6.75;;;12.10;82.20;;;;;;4890384;29;20056;-84
2024/02/03 00:33:38;;;;;;;7.65;6.47;;;12.10;82.20;;;;;;4889196;29;20033;-85
2024/02/03 00:36:04;;;;;;;8.20;7.07;;;12.10;82.20;;;;;;4892361;29;20501;-88
2024/02/03 00:38:30;;;;;;;8.07;6.45;;;12.10;82.20;;;;;;4872161;29;20044;-84
2024/02/03 00:40:56;;;;;;;7.75;6.45;;;12.10;82.20;;;;;;4869530;29;20029;-79
2024/02/03 00:43:22;;;;;;;8.88;6.90;;;12.10;82.20;;;;;;4895263;29;20545;-88
2024/02/03 00:45:47;;;;;;;7.20;6.20;;;12.10;82.20;;;;;;4896900;29;20039;-89
2024/02/03 00:48:13;;;;;;;7.70;6.28;;;12.10;82.20;;;;;;4893115;29;20585;-88
2024/02/03 00:50:39;;;;;;;9.52;7.38;;;12.10;82.20;;;;;;4888707;29;20045;-85
2024/02/03 00:53:05;;;;;;;8.07;6.78;;;12.10;82.20;;;;;;4893205;29;20033;-83
2024/02/03 00:55:30;;;;;;;8.27;6.55;;;12.10;82.20;;;;;;4892873;29;20064;-84
2024/02/03 00:57:57;;;;;;;8.60;7.50;;;12.10;82.20;;;;;;4877123;29;20569;-79
2024/02/03 01:00:27;;;;;;;8.57;6.75;;;12.10;82.20;;;;;;4908990;29;20043;-79
2024/02/03 01:02:54;;;;;;;8.25;6.40;;;12.10;82.20;;;;;;4891253;29;20032;-85
2024/02/03 01:05:19;;;;;;;9.07;6.20;;;12.10;82.20;;;;;;4906014;29;20044;-89
2024/02/03 01:07:45;;;;;;;9.40;6.70;;;12.10;82.20;;;;;;4893191;29;20028;-79
2024/02/03 01:10:11;;;;;;;8.52;6.63;;;12.10;82.20;;;;;;4878975;29;20025;-79
2024/02/03 01:12:37;;;;;;;9.52;7.10;;;12.10;82.20;;;;;;4883454;29;20032;-89
2024/02/03 01:15:03;;;;;;;9.77;7.13;;;12.10;82.20;;;;;;4882564;29;20503;-89
2024/02/03 01:17:29;;;;;;;8.07;6.70;;;12.10;82.20;;;;;;4897691;29;20029;-84
2024/02/03 01:19:54;;;;;;;7.95;6.80;;;12.10;82.20;;;;;;4877178;29;20029;-85
2024/02/03 01:22:21;;;;;;;9.07;6.65;;;12.10;82.20;;;;;;4894173;29;20391;-88
2024/02/03 01:24:47;;;;;;;8.35;6.65;;;12.10;82.80;;;;;;4897505;29;20029;-84
2024/02/03 01:27:13;;;;;;;8.98;6.93;;;12.10;82.20;;;;;;4894880;29;20039;-84
2024/02/03 01:29:39;;;;;;;9.23;6.53;;;12.10;82.20;;;;;;4879331;29;20033;-79
2024/02/03 01:32:06;;;;;;;9.23;6.75;;;12.10;82.20;;;;;;4873828;29;20033;-84
2024/02/03 01:34:32;;;;;;;8.55;6.70;;;12.10;82.20;;;;;;4881188;29;20029;-79
2024/02/03 01:36:58;;;;;;;7.90;6.43;;;12.10;82.20;;;;;;4895279;29;20029;-79
2024/02/03 01:39:25;;;;;;;8.23;6.68;;;12.10;82.20;;;;;;4895644;29;20028;-88
2024/02/03 01:41:51;;;;;;;8.02;6.25;;;12.10;82.20;;;;;;4880154;29;20077;-79
2024/02/03 01:44:16;;;;;;;8.43;6.72;;;12.10;82.20;;;;;;4875525;29;20033;-85
2024/02/03 01:46:44;;;;;;;8.20;6.28;;;12.10;82.20;;;;;;4897198;29;20302;-85
2024/02/03 01:49:11;;;;;;;8.80;6.28;;;12.10;82.20;;;;;;4895522;29;20040;-79
2024/02/03 01:51:38;;;;;;;8.82;6.75;;;12.10;82.20;;;;;;4879586;29;20061;-79
2024/02/03 01:54:05;;;;;;;7.63;6.50;;;12.10;82.20;;;;;;4893717;29;20043;-88
2024/02/03 01:56:35;;;;;;;7.22;5.68;;;12.10;82.20;;;;;;4877567;29;20031;-84
2024/02/03 01:59:03;;;;;;;7.47;6.35;;;12.10;82.20;;;;;;4888360;29;20312;-78
2024/02/03 02:01:29;;;;;;;7.28;6.05;;;12.10;82.20;;;;;;4894820;29;20104;-85
2024/02/03 02:03:55;;;;;;;7.13;5.72;;;12.10;82.30;;;;;;4890225;29;20032;-82
2024/02/03 02:06:20;;;;;;;7.10;5.80;;;12.10;82.20;;;;;;4897975;29;20027;-89
2024/02/03 02:08:50;;;;;;;7.43;5.68;;;12.20;82.30;;;;;;4890993;29;20056;-84
2024/02/03 02:11:19;;;;;;;7.95;5.75;;;12.20;82.30;;;;;;4886685;29;20025;-79
2024/02/03 02:13:45;;;;;;;8.35;6.28;;;12.20;82.30;;;;;;4893102;29;20027;-89
2024/02/03 02:16:11;;;;;;;7.82;5.55;;;12.20;82.20;;;;;;4881312;29;20684;-88
2024/02/03 02:18:36;;;;;;;7.78;6.13;;;12.20;82.30;;;;;;4881793;29;20039;-89
2024/02/03 02:21:02;;;;;;;7.38;5.28;;;12.10;82.20;;;;;;4895266;29;20033;-84
2024/02/03 02:23:28;;;;;;;6.70;5.28;;;12.10;82.20;;;;;;4892504;29;20037;-84
2024/02/03 02:25:55;;;;;;;7.30;5.80;;;12.20;82.30;;;;;;4889951;29;20047;-79
2024/02/03 02:28:21;;;;;;;7.82;5.65;;;12.20;82.90;;;;;;4894607;29;20177;-84
2024/02/03 02:30:47;;;;;;;6.70;5.13;;;12.10;82.20;;;;;;4895693;29;20025;-84
2024/02/03 02:33:14;;;;;;;7.03;5.28;;;12.20;82.30;;;;;;4892150;29;20523;-85
2024/02/03 02:35:40;;;;;;;6.72;5.22;;;12.20;82.30;;;;;;4880870;29;20037;-89
2024/02/03 02:38:06;;;;;;;6.57;5.10;;;12.20;82.30;;;;;;4877949;29;20028;-79
2024/02/03 02:40:35;;;;;;;6.75;5.03;;;12.20;82.30;;;;;;4891371;29;20397;-84
2024/02/03 02:43:01;;;;;;;6.38;4.97;;;12.20;82.30;;;;;;4906375;29;20385;-89
2024/02/03 02:45:28;;;;;;;6.72;4.57;;;12.20;82.30;;;;;;4879776;29;20149;-79
2024/02/03 02:47:54;;;;;;;6.82;5.45;;;12.20;82.30;;;;;;4896619;29;20024;-84
2024/02/03 02:50:21;;;;;;;6.80;5.03;;;12.20;82.30;;;;;;4875317;29;20025;-84
2024/02/03 02:52:46;;;;;;;6.75;4.88;;;12.20;82.30;;;;;;4880242;29;20029;-84
2024/02/03 02:55:15;;;;;;;7.22;5.10;;;12.20;83.00;;;;;;4892020;29;20071;-79
2024/02/03 02:57:41;;;;;;;6.90;4.90;;;12.20;82.40;;;;;;4879381;29;20049;-87
2024/02/03 03:00:09;;;;;;;6.82;5.10;;;12.20;82.30;;;;;;4898068;29;20084;-80
2024/02/03 03:02:35;;;;;;;6.00;4.68;;;12.20;82.30;;;;;;4895046;29;20032;-89
2024/02/03 03:05:01;;;;;;;5.78;4.38;;;12.20;82.30;;;;;;4895536;29;20474;-85
2024/02/03 03:07:27;;;;;;;5.93;4.45;;;12.20;82.30;;;;;;4906772;29;20501;-89
2024/02/03 03:09:52;;;;;;;5.38;4.22;;;12.20;82.30;;;;;;4880440;29;20032;-84
2024/02/03 03:12:18;;;;;;;5.82;4.32;;;12.20;82.30;;;;;;4875367;29;20474;-88
2024/02/03 03:14:44;;;;;;;5.60;3.92;;;12.20;82.30;;;;;;4897162;29;20032;-83
2024/02/03 03:17:10;;;;;;;5.95;4.65;;;12.20;82.30;;;;;;4889544;29;20044;-88
2024/02/03 03:19:40;;;;;;;6.63;4.57;;;12.20;82.30;;;;;;4880321;29;20052;-83
2024/02/03 03:22:06;;;;;;;5.80;4.18;;;12.20;82.30;;;;;;4892931;29;20021;-84
2024/02/03 03:24:34;;;;;;;5.88;4.45;;;12.20;82.30;;;;;;4880241;29;20054;-78
2024/02/03 03:27:00;;;;;;;5.68;4.20;;;12.20;82.30;;;;;;4885933;29;20041;-79
2024/02/03 03:29:26;;;;;;;5.10;4.10;;;12.20;82.30;;;;;;4891643;29;20036;-84
2024/02/03 03:31:52;;;;;;;5.38;4.20;;;12.20;82.30;;;;;;4892810;29;20033;-83
2024/02/03 03:34:17;;;;;;;5.18;4.13;;;12.20;82.30;;;;;;4892928;29;20402;-78
2024/02/03 03:36:43;;;;;;;6.10;4.15;;;12.20;82.30;;;;;;4879436;29;20064;-84
2024/02/03 03:39:09;;;;;;;5.28;3.88;;;12.20;82.30;;;;;;4878379;29;20029;-78
2024/02/03 03:41:34;;;;;;;5.03;3.90;;;12.20;82.30;;;;;;4874347;29;20028;-85
2024/02/03 03:44:00;;;;;;;4.95;3.78;;;12.20;82.30;;;;;;4890838;29;20065;-83
2024/02/03 03:46:26;;;;;;;5.68;4.38;;;12.20;82.30;;;;;;4877768;29;20088;-88
2024/02/03 03:48:52;;;;;;;5.13;3.83;;;12.20;82.30;;;;;;4892972;29;20076;-79
2024/02/03 03:51:17;;;;;;;6.13;4.55;;;12.20;82.30;;;;;;4895650;29;20131;-88
2024/02/03 03:53:43;;;;;;;5.32;4.30;;;12.20;82.30;;;;;;4896413;29;20127;-87
2024/02/03 03:56:10;;;;;;;5.13;3.80;;;12.20;82.30;;;;;;4888356;29;20067;-88
2024/02/03 03:58:36;;;;;;;5.78;3.92;;;12.20;82.30;;;;;;4878466;29;20045;-84
2024/02/03 04:01:02;;;;;;;4.72;3.63;;;12.20;82.30;;;;;;4878265;29;20108;-85
2024/02/03 04:03:28;;;;;;;5.65;3.92;;;12.30;82.40;;;;;;4893077;29;20447;-85
2024/02/03 04:05:54;;;;;;;6.75;4.10;;;12.30;82.30;;;;;;4897945;29;20515;-85
2024/02/03 04:08:20;;;;;;;4.88;3.85;;;12.20;82.30;;;;;;4891624;29;20067;-85
2024/02/03 04:10:45;;;;;;;5.13;4.20;;;12.20;82.30;;;;;;4891982;29;20040;-83
2024/02/03 04:13:11;;;;;;;5.35;3.92;;;12.20;82.30;;;;;;4895866;29;20020;-84
2024/02/03 04:15:37;;;;;;;5.28;4.03;;;12.20;82.30;;;;;;4877596;29;20028;-84
2024/02/03 04:18:03;;;;;;;4.93;3.85;;;12.20;82.40;;;;;;4897318;29;20033;-78
2024/02/03 04:20:29;;;;;;;5.25;3.58;;;12.20;82.40;;;;;;4878548;29;20033;-84
2024/02/03 04:22:54;;;;;;;4.82;3.80;;;12.20;82.40;;;;;;4877387;29;20032;-84
2024/02/03 04:25:20;;;;;;;4.85;3.55;;;12.20;82.40;;;;;;4877357;29;20029;-79
2024/02/03 04:27:46;;;;;;;4.78;3.97;;;12.30;82.40;;;;;;4890169;29;20021;-79
2024/02/03 04:30:13;;;;;;;4.85;3.53;;;12.30;82.40;;;;;;4884401;29;20036;-84
2024/02/03 04:32:38;;;;;;;4.88;3.88;;;12.30;82.40;;;;;;4889812;29;20029;-85
2024/02/03 04:35:05;;;;;;;5.05;3.90;;;12.30;82.40;;;;;;4889428;29;20025;-88
2024/02/03 04:37:31;;;;;;;5.15;4.00;;;12.30;82.40;;;;;;4892611;29;20084;-83
2024/02/03 04:39:57;;;;;;;4.63;3.55;;;12.30;82.40;;;;;;4880286;29;20030;-79
2024/02/03 04:42:23;;;;;;;5.30;3.60;;;12.30;82.40;;;;;;4895099;29;20032;-87
2024/02/03 04:44:48;;;;;;;4.80;3.35;;;12.30;82.40;;;;;;4891609;29;20085;-88
2024/02/03 04:47:14;;;;;;;4.60;3.63;;;12.30;82.40;;;;;;4899555;29;20064;-89
2024/02/03 04:49:40;;;;;;;4.53;3.70;;;12.30;82.40;;;;;;4891047;29;20025;-89
2024/02/03 04:52:05;;;;;;;5.15;4.10;;;12.30;82.40;;;;;;4896116;29;20397;-88
2024/02/03 04:54:31;;;;;;;4.22;3.28;;;12.30;82.40;;;;;;4898711;29;20032;-84
2024/02/03 04:56:57;;;;;;;4.95;3.95;;;12.30;82.40;;;;;;4897862;29;20108;-84
2024/02/03 04:59:23;;;;;;;4.85;3.35;;;12.30;82.40;;;;;;4894947;29;20025;-88
2024/02/03 05:01:48;;;;;;;4.45;3.60;;;12.30;82.40;;;;;;4892394;29;20088;-78
2024/02/03 05:04:14;;;;;;;4.60;3.53;;;12.30;82.30;;;;;;4881293;29;20036;-88
2024/02/03 05:06:40;;;;;;;4.82;3.45;;;12.30;82.40;;;;;;4898137;29;20029;-88
2024/02/03 05:09:07;;;;;;;5.88;3.72;;;12.30;82.40;;;;;;4881453;29;20484;-79
2024/02/03 05:11:35;;;;;;;4.72;3.30;;;12.30;82.40;;;;;;4896370;29;20056;-84
2024/02/03 05:14:00;;;;;;;4.05;3.10;;;12.30;82.40;;;;;;4879709;29;20091;-79
2024/02/03 05:16:26;;;;;;;5.03;3.70;;;12.30;82.40;;;;;;4891829;29;20037;-88
2024/02/03 05:18:56;;;;;;;5.35;3.83;;;12.30;82.30;;;;;;4899607;29;20048;-89
2024/02/03 05:21:21;;;;;;;5.97;4.00;;;12.30;82.40;;;;;;4898167;29;20131;-88
2024/02/03 05:23:47;;;;;;;4.78;3.92;;;12.30;82.30;;;;;;4897146;29;20080;-84
2024/02/03 05:26:13;;;;;;;5.93;3.70;;;12.30;82.40;;;;;;4878892;29;20092;-84
2024/02/03 05:28:38;;;;;;;5.55;4.00;;;12.30;82.40;;;;;;4897005;29;20099;-88
2024/02/03 05:31:05;;;;;;;4.55;3.78;;;12.30;82.40;;;;;;4879318;29;20020;-84
2024/02/03 05:33:30;;;;;;;4.30;3.45;;;12.30;82.40;;;;;;4875537;29;20041;-89
2024/02/03 05:35:56;;;;;;;4.47;3.58;;;12.30;82.40;;;;;;4886648;29;20033;-79
2024/02/03 05:38:25;;;;;;;5.30;3.40;;;12.30;82.40;;;;;;4887215;29;20032;-79
2024/02/03 05:40:50;;;;;;;5.68;3.83;;;12.30;82.40;;;;;;4877369;29;20497;-88
2024/02/03 05:43:16;;;;;;;4.72;3.30;;;12.30;82.40;;;;;;4894514;29;20537;-79
2024/02/03 05:45:45;;;;;;;4.22;3.58;;;12.30;82.40;;;;;;4898481;29;20033;-84
2024/02/03 05:48:10;;;;;;;4.38;3.28;;;12.30;82.40;;;;;;4896894;29;20493;-84
2024/02/03 05:50:36;;;;;;;4.82;3.60;;;12.30;82.40;;;;;;4896458;29;20495;-84
2024/02/03 05:53:02;;;;;;;3.92;3.38;;;12.30;82.40;;;;;;4896942;29;20611;-84
2024/02/03 05:55:28;;;;;;;4.97;3.40;;;12.30;82.40;;;;;;4880768;29;20120;-84
2024/02/03 05:57:54;;;;;;;4.63;3.53;;;12.30;82.40;;;;;;4884850;29;20430;-84
2024/02/03 06:00:21;;;;;;;5.60;3.80;;;12.30;82.40;;;;;;4896931;29;20052;-88
2024/02/03 06:02:47;;;;;;;5.63;3.47;;;12.30;82.40;;;;;;4895488;29;20044;-84
2024/02/03 06:05:14;;;;;;;3.67;3.20;;;12.30;82.40;;;;;;4891356;29;20462;-84
2024/02/03 06:07:40;;;;;;;4.50;3.28;;;12.30;82.50;;;;;;4879067;29;20029;-79
2024/02/03 06:10:06;;;;;;;4.10;3.30;;;12.30;82.40;;;;;;4896198;29;20020;-89
2024/02/03 06:12:32;;;;;;;4.35;3.30;;;12.30;82.40;;;;;;4897568;29;20020;-88
2024/02/03 06:14:58;;;;;;;4.15;3.33;;;12.30;82.40;;;;;;4879369;29;20519;-83
2024/02/03 06:17:24;;;;;;;4.20;3.10;;;12.30;82.40;;;;;;4875586;29;20501;-84
2024/02/03 06:19:53;;;;;;;4.65;3.53;;;12.30;82.40;;;;;;4898387;29;20032;-84
2024/02/03 06:22:19;;;;;;;4.15;3.30;;;12.30;82.40;;;;;;4894374;29;20529;-88
2024/02/03 06:24:44;;;;;;;3.78;3.00;;;12.30;82.40;;;;;;4899407;29;20512;-79
2024/02/03 06:27:10;;;;;;;4.22;2.95;;;12.30;83.10;;;;;;4892798;29;20497;-88
2024/02/03 06:29:36;;;;;;;4.15;3.58;;;12.30;82.40;;;;;;4878520;29;20041;-88
2024/02/03 06:32:02;;;;;;;4.60;2.95;;;12.30;82.40;;;;;;4883763;29;20040;-84
2024/02/03 06:34:28;;;;;;;4.95;3.10;;;12.30;82.40;;;;;;4896088;29;20135;-83
2024/02/03 06:36:53;;;;;;;3.75;2.80;;;12.30;82.40;;;;;;4872858;29;20052;-89
2024/02/03 06:39:19;;;;;;;3.50;2.83;;;12.30;82.40;;;;;;4896418;29;20116;-88
2024/02/03 06:41:46;;;;;;;3.50;2.72;;;12.30;82.40;;;;;;4894734;29;20120;-78
2024/02/03 06:44:12;;;;;;;4.72;3.15;;;12.30;82.40;;;;;;4889939;29;20112;-79
2024/02/03 06:46:38;;;;;;;4.65;3.20;;;12.30;82.40;;;;;;4898288;29;20033;-83
2024/02/03 06:49:04;;;;;;;3.42;2.90;;;12.30;82.40;;;;;;4896888;29;20422;-84
2024/02/03 06:51:29;;;;;;;4.68;3.03;;;12.40;82.40;;;;;;4893081;29;20072;-84
2024/02/03 06:53:55;;;;;;;3.92;2.72;;;12.30;82.40;;;;;;4890627;29;20033;-79
2024/02/03 06:56:21;;;;;;;3.75;2.58;;;12.30;82.40;;;;;;4889883;29;20033;-79
2024/02/03 06:58:50;;;;;;;5.65;2.80;;;12.30;82.40;;;;;;4881585;29;20040;-79
2024/02/03 07:01:16;;;;;;;3.60;2.67;;;12.40;82.50;;;;;;4889947;29;20040;-84
2024/02/03 07:03:41;;;;;;;3.75;2.80;;;12.30;82.40;;;;;;4894468;29;20032;-79
2024/02/03 07:06:19;;;;;;;4.32;2.90;;;12.30;82.40;;;;;;4888150;29;20115;-85
2024/02/03 07:08:45;;;;;;;3.75;2.60;;;12.30;82.50;;;;;;4866453;29;20040;-89
2024/02/03 07:11:11;;;;;;;3.63;2.78;;;12.30;82.40;;;;;;4892973;29;20040;-79
2024/02/03 07:13:38;;;;;;;4.20;3.00;;;12.30;82.40;;;;;;4883335;29;20021;-89
2024/02/03 07:16:05;;;;;;;3.25;2.50;;;12.30;82.40;;;;;;4894154;29;20022;-85
2024/02/03 07:18:31;;;;;;;3.63;2.70;;;12.30;82.40;;;;;;4894392;29;20504;-84
2024/02/03 07:20:57;;;;;;;4.05;2.50;;;12.30;82.40;;;;;;4892595;29;20052;-86
2024/02/03 07:23:25;;;;;;;3.72;2.67;;;12.40;82.50;;;;;;4879661;29;20028;-85
2024/02/03 07:25:51;;;;;;;3.13;2.50;;;12.30;82.40;;;;;;4888391;29;20031;-89
2024/02/03 07:28:17;;;;;;;4.60;2.90;;;12.30;82.40;;;;;;4895094;29;20493;-86
2024/02/03 07:30:43;;;;;;;4.32;2.47;;;12.30;82.50;;;;;;4898569;29;20528;-88
2024/02/03 07:33:09;;;;;;;3.97;2.75;;;12.40;82.50;;;;;;4888727;29;20036;-89
2024/02/03 07:35:35;;;;;;;4.68;2.53;;;12.40;82.50;;;;;;4897808;29;20043;-86
2024/02/03 07:38:02;;;;;;;2.83;2.20;;;12.40;82.50;;;;;;4901427;29;20469;-86
2024/02/03 07:40:27;;;;;;;3.05;2.30;;;12.40;82.50;;;;;;4881755;29;20033;-79
2024/02/03 07:42:53;;;;;;;4.43;3.05;;;12.30;82.40;;;;;;4883361;29;20044;-90
2024/02/03 07:45:19;;;;;;;3.35;2.40;;;12.40;82.50;;;;;;4887681;29;20027;-85
2024/02/03 07:47:45;;;;;;;6.20;2.92;;;12.40;82.50;;;;;;4895060;29;20020;-91
2024/02/03 07:50:11;;;;;;;4.68;2.88;;;12.40;82.50;;;;;;4912177;29;20031;-91
2024/02/03 07:52:37;;;;;;;4.15;2.70;;;12.40;82.50;;;;;;4877944;29;20031;-79
2024/02/03 07:55:03;;;;;;;3.55;2.45;;;12.40;82.50;;;;;;4875132;29;20021;-92
2024/02/03 07:57:30;;;;;;;3.85;2.63;;;12.40;82.50;;;;;;4894436;29;20097;-85
2024/02/03 07:59:55;;;;;;;4.63;3.05;;;12.40;82.50;;;;;;4897532;29;20050;-86
2024/02/03 08:02:21;;;;;;;3.92;2.78;;;12.40;82.50;;;;;;4878644;29;20036;-79
2024/02/03 08:04:47;;;;;;;3.95;2.35;;;12.40;82.50;;;;;;4890491;29;20068;-85
2024/02/03 08:07:12;;;;;;;3.75;2.65;;;12.40;82.50;;;;;;4893434;29;20033;-92
2024/02/03 08:09:38;;;;;;;3.53;2.67;;;12.40;82.50;;;;;;4890145;29;20037;-93
2024/02/03 08:12:04;;;;;;;4.60;2.97;;;12.40;82.50;;;;;;4878923;29;20025;-85
2024/02/03 08:14:30;;;;;;;4.38;2.80;;;12.40;82.50;;;;;;4889499;29;20040;-84
2024/02/03 08:16:57;;;;;;;5.00;3.00;;;12.40;82.50;;;;;;4895036;29;20044;-80
2024/02/03 08:19:23;;;;;;;3.05;2.70;;;12.40;82.50;;;;;;4896759;29;20025;-95
2024/02/03 08:21:49;;;;;;;5.32;3.20;;;12.40;82.50;;;;;;4893279;29;20021;-80
2024/02/03 08:24:15;;;;;;;3.78;2.67;;;12.40;82.50;;;;;;4890293;29;20062;-86
2024/02/03 08:26:40;;;;;;;5.63;3.38;;;12.40;82.50;;;;;;4877327;29;20029;-87
2024/02/03 08:29:06;;;;;;;5.85;3.45;;;12.40;82.50;;;;;;4877908;29;20564;-80
2024/02/03 08:31:32;;;;;;;4.07;2.97;;;12.40;82.50;;;;;;4892292;29;20029;-96
2024/02/03 08:33:58;;;;;;;4.50;3.45;;;12.40;82.50;;;;;;4891321;29;20020;-80
2024/02/03 08:36:24;;;;;;;4.25;2.92;;;12.40;82.50;;;;;;4883162;29;20092;-96
2024/02/03 08:38:50;;;;;;;3.65;3.03;;;12.40;82.50;;;;;;4897911;29;20029;-84
2024/02/03 08:41:15;;;;;;;5.90;3.63;;;12.40;82.50;;;;;;4878983;29;20017;-87
2024/02/03 08:43:41;;;;;;;4.40;3.22;;;12.40;82.50;;;;;;4875076;29;20037;-79
2024/02/03 08:46:08;;;;;;;4.82;3.17;;;12.40;82.50;;;;;;4892225;29;20116;-87
2024/02/03 08:48:34;;;;;;;4.80;3.65;;;12.40;82.50;;;;;;4894159;29;20033;-92
2024/02/03 08:51:00;;;;;;;4.80;2.95;;;12.40;82.50;;;;;;4875772;29;20044;-86
2024/02/03 08:53:25;;;;;;;4.65;3.25;;;12.40;82.50;;;;;;4893469;29;20437;-85
2024/02/03 08:55:52;;;;;;;4.80;3.38;;;12.40;82.50;;;;;;4888951;29;20048;-93
2024/02/03 08:58:18;;;;;;;3.88;3.03;;;12.40;82.50;;;;;;4892918;29;20093;-80
2024/02/03 09:00:44;;;;;;;5.05;3.30;;;12.40;82.50;;;;;;4894801;29;20041;-80
2024/02/03 09:03:10;;;;;;;5.07;3.08;;;12.40;82.50;;;;;;4885686;29;20032;-87
2024/02/03 09:05:37;;;;;;;5.43;3.40;;;12.40;82.40;;;;;;4893719;29;20031;-80
2024/02/03 09:08:05;;;;;;;4.70;3.60;;;12.50;82.50;;;;;;4875135;29;20055;-94
2024/02/03 09:10:31;;;;;;;4.55;3.35;;;12.50;82.50;;;;;;4897781;29;20105;-94
2024/02/03 09:12:57;;;;;;;5.68;3.42;;;12.40;82.40;;;;;;4902606;29;20041;-84
2024/02/03 09:15:23;;;;;;;4.28;3.40;;;12.50;82.50;;;;;;4890311;29;20100;-87
2024/02/03 09:17:50;;;;;;;4.70;3.28;;;12.50;82.50;;;;;;4873966;29;20040;-87
2024/02/03 09:20:16;;;;;;;4.22;3.42;;;12.40;82.40;;;;;;4890496;29;20093;-85
2024/02/03 09:22:43;;;;;;;3.83;2.90;;;12.50;82.50;;;;;;4881283;29;20561;-94
2024/02/03 09:25:09;;;;;;;4.60;3.15;;;12.50;82.50;;;;;;4883338;29;20033;-87
2024/02/03 09:27:36;;;;;;;4.38;3.35;;;12.50;82.50;;;;;;4903427;29;20085;-87
2024/02/03 09:30:04;;;;;;;4.63;3.75;;;12.50;82.50;;;;;;4878101;29;20104;-85
2024/02/03 09:32:30;;;;;;;3.70;3.05;;;12.50;82.50;;;;;;4862697;29;20036;-93
2024/02/03 09:34:56;;;;;;;4.53;3.53;;;12.50;82.50;;;;;;4885334;29;20029;-80
2024/02/03 09:37:22;;;;;;;4.63;3.30;;;12.50;82.40;;;;;;4884880;29;20108;-94
2024/02/03 09:39:47;;;;;;;5.80;3.58;;;12.50;82.40;;;;;;4898616;29;20532;-85
2024/02/03 09:42:13;;;;;;;5.53;3.72;;;12.50;82.40;;;;;;4890981;29;20039;-85
2024/02/03 09:44:40;;;;;;;4.45;3.13;;;12.50;82.40;;;;;;4880583;29;20112;-92
2024/02/03 09:47:06;;;;;;;4.78;3.63;;;12.50;82.40;;;;;;4881928;29;20033;-80
2024/02/03 09:49:32;;;;;;;4.95;3.30;;;12.50;82.40;;;;;;4879288;29;20036;-85
2024/02/03 09:51:59;;;;;;;4.82;3.78;;;12.60;82.40;;;;;;4884829;29;20035;-87
2024/02/03 09:54:26;;;;;;;6.05;3.70;;;12.60;82.50;;;;;;4878179;29;20462;-79
2024/02/03 09:56:52;;;;;;;5.03;3.60;;;12.60;82.40;;;;;;4895845;29;20043;-96
2024/02/03 09:59:18;;;;;;;4.18;3.20;;;12.60;82.40;;;;;;4874117;29;20041;-80
2024/02/03 10:01:47;;;;;;;5.20;3.35;;;12.60;82.50;;;;;;4894776;29;20549;-87
2024/02/03 10:04:14;;;;;;;4.85;3.63;;;12.60;82.40;;;;;;4896859;29;20035;-96
2024/02/03 10:06:44;;;;;;;5.60;3.60;;;12.60;82.40;;;;;;4880919;29;20032;-86
2024/02/03 10:09:21;;;;;;;4.70;3.70;;;12.60;82.40;;;;;;4872527;29;20044;-95
2024/02/03 10:11:47;;;;;;;5.00;3.65;;;12.60;82.40;;;;;;4883453;29;20073;-80
2024/02/03 10:14:15;;;;;;;4.70;3.30;;;12.60;82.30;;;;;;4885488;29;20104;-85
2024/02/03 10:16:51;;;;;;;4.60;3.20;;;12.60;82.40;;;;;;4896330;29;20048;-93
2024/02/03 10:19:17;;;;;;;4.80;3.35;;;12.70;82.40;;;;;;4880754;29;20036;-86
2024/02/03 10:21:45;;;;;;;4.70;3.65;;;12.60;82.30;;;;;;4891231;29;20025;-80
2024/02/03 10:24:11;;;;;;;4.15;3.25;;;12.70;82.40;;;;;;4879122;29;20062;-93
2024/02/03 10:26:36;;;;;;;4.85;3.22;;;12.70;82.40;;;;;;4894738;29;20065;-92
2024/02/03 10:29:03;;;;;;;3.88;3.13;;;12.70;82.40;;;;;;4888203;29;20118;-92
2024/02/03 10:31:28;;;;;;;5.45;3.55;;;12.70;82.40;;;;;;4889659;29;20557;-95
2024/02/03 10:33:57;;;;;;;4.88;3.50;;;12.70;82.40;;;;;;4888326;29;20504;-86
2024/02/03 10:36:23;;;;;;;4.50;3.13;;;12.70;82.30;;;;;;4896805;29;20043;-87
2024/02/03 10:38:49;;;;;;;4.22;3.15;;;12.70;82.30;;;;;;4892420;29;20036;-81
2024/02/03 10:41:19;;;;;;;4.80;3.25;;;12.70;82.30;;;;;;4892906;29;20478;-92
2024/02/03 10:43:49;;;;;;;4.13;3.10;;;12.70;82.30;;;;;;4898737;29;20038;-81
2024/02/03 10:46:19;;;;;;;3.97;3.10;;;12.80;82.40;;;;;;4871691;29;20040;-90
2024/02/03 10:48:44;;;;;;;4.32;3.22;;;12.80;82.30;;;;;;4886459;29;20040;-89
2024/02/03 10:51:18;;;;;;;4.35;3.15;;;12.80;82.30;;;;;;4898175;29;20036;-84
2024/02/03 10:53:53;;;;;;;5.03;3.00;;;12.80;82.30;;;;;;4903798;29;20040;-87
2024/02/03 10:56:20;;;;;;;;;;;12.80;82.40;;;;;;4884380;29;20040;-80
2024/02/03 10:58:48;;;;;;;4.15;2.80;;;12.80;82.30;;;;;;4883793;29;19923;-92
2024/02/03 11:01:17;;;;;;;4.03;3.05;;;12.80;82.10;;;;;;4903368;29;20044;-91
2024/02/03 11:03:46;;;;;;;3.90;2.65;;;12.80;82.30;;;;;;4885221;29;20503;-88
2024/02/03 11:06:12;;;;;;;3.80;2.85;;;12.80;82.30;;;;;;4883149;29;20029;-93
2024/02/03 11:08:43;;;;;;;4.90;3.08;;;12.80;82.30;;;;;;4898859;29;20043;-92
2024/02/03 11:11:08;;;;;;;3.03;2.63;;;12.80;82.30;;;;;;4900414;29;20032;-91
2024/02/03 11:13:38;;;;;;;4.20;2.70;;;12.80;82.30;;;;;;4889246;29;20072;-90
2024/02/03 11:16:05;;;;;;;3.92;2.97;;;12.80;82.30;;;;;;4883507;29;20036;-85
2024/02/03 11:18:40;;;;;;;4.22;2.60;;;12.80;82.30;;;;;;4892646;29;20028;-80
2024/02/03 11:21:06;;;;;;;;;;;12.90;82.30;;;;;;4899162;29;20048;-79
2024/02/03 11:23:33;;;;;;;3.05;2.10;;;12.80;82.20;;;;;;4890595;29;19915;-87
2024/02/03 11:26:00;;;;;;;2.50;2.30;;;12.90;82.10;;;;;;4895296;29;20037;-79
2024/02/03 11:28:34;;;;;;;3.65;2.60;;;12.90;82.20;;;;;;4878679;29;20040;-80
2024/02/03 11:31:06;;;;;;;3.72;2.35;;;12.90;82.30;;;;;;4879652;29;20032;-80
2024/02/03 11:33:43;;;;;;;4.55;3.00;;;12.90;82.30;;;;;;4897360;29;20043;-86
2024/02/03 11:36:12;;;;;;;3.80;2.70;;;12.90;82.40;;;;;;4894804;29;20028;-80
2024/02/03 11:38:48;;;;;;;3.40;2.47;;;12.90;82.30;;;;;;4899399;29;20039;-80
2024/02/03 11:41:15;;;;;;;4.47;2.45;;;12.90;82.30;;;;;;4895455;29;20449;-80
2024/02/03 11:43:42;;;;;;;3.10;2.60;;;12.90;82.30;;;;;;4897768;29;20032;-79
2024/02/03 11:46:10;;;;;;;2.50;2.08;;;12.90;82.30;;;;;;4894373;29;20067;-80
2024/02/03 11:48:39;;;;;;;2.72;2.17;;;12.90;82.30;;;;;;4891002;29;20042;-87
2024/02/03 11:51:09;;;;;;;3.40;2.22;;;12.90;82.30;;;;;;4883061;29;20028;-87
2024/02/03 11:53:35;;;;;;;3.35;2.40;;;13.00;82.30;;;;;;4891955;29;20038;-80
2024/02/03 11:56:01;;;;;;;2.65;2.17;;;13.00;82.30;;;;;;4894680;29;20359;-87
2024/02/03 11:58:26;;;;;;;3.75;2.30;;;13.00;82.30;;;;;;4911561;29;20480;-90
2024/02/03 12:01:08;;;;;;;2.72;2.20;;;13.00;82.30;;;;;;4877954;29;20056;-78
2024/02/03 12:03:37;;;;;;;2.40;2.20;;;13.00;82.40;;;;;;4897065;29;20454;-85
2024/02/03 12:06:07;;;;;;;2.60;2.03;;;13.00;82.30;;;;;;4875277;29;20033;-84
2024/02/03 12:08:33;;;;;;;3.15;2.25;;;13.00;82.30;;;;;;4890952;29;20239;-83
2024/02/03 12:10:59;;;;;;;3.35;2.35;;;13.00;82.30;;;;;;4876548;29;20502;-95
2024/02/03 12:13:25;;;;;;;3.22;2.03;;;13.00;82.30;;;;;;4891880;29;20033;-83
2024/02/03 12:15:54;;;;;;;3.38;2.13;;;13.00;82.30;;;;;;4880055;29;20072;-80
2024/02/03 12:18:20;;;;;;;3.05;2.00;;;13.00;82.30;;;;;;4885995;29;20026;-83
2024/02/03 12:20:46;;;;;;;2.45;2.08;;;13.00;82.30;;;;;;4883809;29;20032;-91
2024/02/03 12:23:12;;;;;;;2.70;2.10;;;13.00;82.30;;;;;;4885162;29;20033;-91
2024/02/03 12:25:38;;;;;;;2.97;2.33;;;13.00;82.30;;;;;;4878409;29;20101;-83
2024/02/03 12:28:06;;;;;;;2.78;2.15;;;13.00;82.30;;;;;;4880228;29;20032;-84
2024/02/03 12:30:35;;;;;;;3.47;2.47;;;13.00;82.30;;;;;;4877495;29;20265;-90
2024/02/03 12:33:02;;;;;;;4.32;2.08;;;13.00;82.30;;;;;;4874671;29;20035;-88
2024/02/03 12:35:29;;;;;;;4.18;2.40;;;13.00;82.30;;;;;;4875941;29;20036;-87
2024/02/03 12:37:55;;;;;;;2.22;1.92;;;13.10;82.30;;;;;;4879601;29;20048;-84
2024/02/03 12:40:21;;;;;;;2.75;1.83;;;13.10;82.30;;;;;;4892141;29;20515;-79
2024/02/03 12:42:46;;;;;;;2.25;2.05;;;13.10;82.30;;;;;;4885865;29;20029;-96
2024/02/03 12:45:13;;;;;;;2.50;2.10;;;13.10;82.30;;;;;;4887708;29;20028;-79